createdAt,value
2018-02-07T00:00:09.356Z,-1.74
2018-02-07T00:01:09.359Z,-1.76
2018-02-07T00:02:09.366Z,-1.71
2018-02-07T00:03:09.368Z,-1.78
2018-02-07T00:04:09.373Z,-1.81
2018-02-07T00:05:09.405Z,-1.79
2018-02-07T00:06:09.393Z,-1.72
2018-02-07T00:07:09.398Z,-1.74
2018-02-07T00:08:09.409Z,-1.72
2018-02-07T00:09:09.421Z,-1.72
2018-02-07T00:10:09.429Z,-1.71
2018-02-07T00:11:09.436Z,-1.78
2018-02-07T00:12:09.444Z,-1.74
2018-02-07T00:13:09.459Z,-1.78
2018-02-07T00:14:09.464Z,-1.74
2018-02-07T00:15:09.480Z,-1.69
2018-02-07T00:16:09.480Z,-1.78
2018-02-07T00:17:09.489Z,-1.75
2018-02-07T00:18:09.493Z,-1.79
2018-02-07T00:19:09.507Z,-1.79
2018-02-07T00:20:09.518Z,-1.78
2018-02-07T00:21:09.515Z,-1.78
2018-02-07T00:22:09.526Z,-1.74
2018-02-07T00:23:09.531Z,-1.69
2018-02-07T00:24:09.540Z,-1.84
2018-02-07T00:25:09.545Z,-1.86
2018-02-07T00:26:09.556Z,-1.81
2018-02-07T00:27:09.567Z,-1.82
2018-02-07T00:28:09.569Z,-1.81
2018-02-07T00:29:09.583Z,-1.86
2018-02-07T00:30:09.591Z,-1.78
2018-02-07T00:31:09.597Z,-1.79
2018-02-07T00:32:09.611Z,-1.75
2018-02-07T00:33:09.616Z,-1.84
2018-02-07T00:34:09.626Z,-1.78
2018-02-07T00:35:09.638Z,-1.81
2018-02-07T00:36:09.647Z,-1.84
2018-02-07T00:37:09.643Z,-1.82
2018-02-07T00:38:09.651Z,-1.78
2018-02-07T00:39:09.658Z,-1.74
2018-02-07T00:40:09.671Z,-1.81
2018-02-07T00:41:09.676Z,-1.81
2018-02-07T00:42:09.683Z,-1.79
2018-02-07T00:43:09.701Z,-1.82
2018-02-07T00:44:09.706Z,-1.87
2018-02-07T00:45:09.716Z,-1.79
2018-02-07T00:46:09.728Z,-1.89
2018-02-07T00:47:09.730Z,-1.74
2018-02-07T00:48:09.742Z,-1.74
2018-02-07T00:49:09.746Z,-1.81
2018-02-07T00:50:09.757Z,-1.74
2018-02-07T00:51:09.768Z,-1.75
2018-02-07T00:52:09.775Z,-1.74
2018-02-07T00:53:09.791Z,-1.81
2018-02-07T00:54:09.783Z,-1.84
2018-02-07T00:55:09.793Z,-1.86
2018-02-07T00:56:09.804Z,-1.87
2018-02-07T00:57:09.803Z,-1.86
2018-02-07T00:58:09.812Z,-1.79
2018-02-07T00:59:09.825Z,-1.84
2018-02-07T01:00:09.847Z,-1.79
2018-02-07T01:01:09.849Z,-1.75
2018-02-07T01:02:09.854Z,-1.82
2018-02-07T01:03:09.858Z,-1.79
2018-02-07T01:04:09.869Z,-1.82
2018-02-07T01:05:09.878Z,-1.82
2018-02-07T01:06:09.889Z,-1.74
2018-02-07T01:07:09.899Z,-1.74
2018-02-07T01:08:09.904Z,-1.81
2018-02-07T01:09:09.902Z,-1.76
2018-02-07T01:10:09.914Z,-1.75
2018-02-07T01:11:09.921Z,-1.71
2018-02-07T01:12:09.934Z,-1.68
2018-02-07T01:13:09.937Z,-1.75
2018-02-07T01:14:09.944Z,-1.74
2018-02-07T01:15:09.961Z,-1.76
2018-02-07T01:16:09.964Z,-1.64
2018-02-07T01:17:09.973Z,-1.68
2018-02-07T01:18:09.981Z,-1.81
2018-02-07T01:19:09.987Z,-1.71
2018-02-07T01:20:10.006Z,-1.64
2018-02-07T01:21:10.008Z,-1.74
2018-02-07T01:22:10.018Z,-1.78
2018-02-07T01:23:10.031Z,-1.71
2018-02-07T01:24:10.032Z,-1.68
2018-02-07T01:25:10.047Z,-1.64
2018-02-07T01:26:10.046Z,-1.68
2018-02-07T01:27:10.047Z,-1.78
2018-02-07T01:28:10.061Z,-1.66
2018-02-07T01:29:10.063Z,-1.72
2018-02-07T01:30:10.072Z,-1.69
2018-02-07T01:31:10.084Z,-1.64
2018-02-07T01:32:10.094Z,-1.68
2018-02-07T01:33:10.106Z,-1.64
2018-02-07T01:34:10.112Z,-1.71
2018-02-07T01:35:10.120Z,-1.81
2018-02-07T01:36:10.128Z,-1.69
2018-02-07T01:37:10.134Z,-1.68
2018-02-07T01:38:10.142Z,-1.71
2018-02-07T01:39:10.157Z,-1.81
2018-02-07T01:40:10.177Z,-1.81
2018-02-07T01:41:10.169Z,-1.71
2018-02-07T01:42:10.181Z,-1.68
2018-02-07T01:43:10.181Z,-1.69
2018-02-07T01:44:10.190Z,-1.76
2018-02-07T01:45:10.210Z,-1.68
2018-02-07T01:46:10.208Z,-1.69
2018-02-07T01:47:10.217Z,-1.76
2018-02-07T01:48:10.228Z,-1.78
2018-02-07T01:49:10.233Z,-1.72
2018-02-07T01:50:10.237Z,-1.68
2018-02-07T01:51:10.256Z,-1.72
2018-02-07T01:52:10.257Z,-1.75
2018-02-07T01:53:10.270Z,-1.68
2018-02-07T01:54:10.283Z,-1.71
2018-02-07T01:55:10.284Z,-1.75
2018-02-07T01:56:10.296Z,-1.79
2018-02-07T01:57:10.302Z,-1.76
2018-02-07T01:58:10.310Z,-1.78
2018-02-07T01:59:10.324Z,-1.74
2018-02-07T02:00:10.319Z,-1.74
2018-02-07T02:01:10.333Z,-1.82
2018-02-07T02:02:10.335Z,-1.75
2018-02-07T02:03:10.358Z,-1.86
2018-02-07T02:04:10.358Z,-1.79
2018-02-07T02:05:10.361Z,-1.82
2018-02-07T02:06:10.373Z,-1.84
2018-02-07T02:07:10.384Z,-1.79
2018-02-07T02:08:10.384Z,-1.81
2018-02-07T02:09:10.398Z,-1.84
2018-02-07T02:10:10.406Z,-1.81
2018-02-07T02:11:10.412Z,-1.76
2018-02-07T02:12:10.430Z,-1.82
2018-02-07T02:13:10.433Z,-1.86
2018-02-07T02:14:10.437Z,-1.81
2018-02-07T02:15:10.450Z,-1.86
2018-02-07T02:16:10.451Z,-1.82
2018-02-07T02:17:10.459Z,-1.86
2018-02-07T02:18:10.468Z,-1.82
2018-02-07T02:19:10.472Z,-1.89
2018-02-07T02:20:10.489Z,-1.81
2018-02-07T02:21:10.491Z,-1.76
2018-02-07T02:22:10.503Z,-1.82
2018-02-07T02:23:10.509Z,-1.82
2018-02-07T02:24:10.516Z,-1.78
2018-02-07T02:25:10.530Z,-1.78
2018-02-07T02:26:10.540Z,-1.79
2018-02-07T02:27:10.542Z,-1.87
2018-02-07T02:28:10.558Z,-1.82
2018-02-07T02:29:10.568Z,-1.81
2018-02-07T02:30:10.569Z,-1.79
2018-02-07T02:31:10.582Z,-1.86
2018-02-07T02:32:10.576Z,-1.81
2018-02-07T02:33:10.587Z,-1.82
2018-02-07T02:34:10.594Z,-1.82
2018-02-07T02:35:10.605Z,-1.82
2018-02-07T02:36:10.615Z,-1.86
2018-02-07T02:37:10.620Z,-1.84
2018-02-07T02:38:10.630Z,-1.84
2018-02-07T02:39:10.642Z,-1.79
2018-02-07T02:40:10.662Z,-1.81
2018-02-07T02:41:10.658Z,-1.86
2018-02-07T02:42:10.666Z,-1.82
2018-02-07T02:43:10.674Z,-1.86
2018-02-07T02:44:10.690Z,-1.86
2018-02-07T02:45:10.690Z,-1.86
2018-02-07T02:46:10.699Z,-1.82
2018-02-07T02:47:10.717Z,-1.81
2018-02-07T02:48:10.721Z,-1.84
2018-02-07T02:49:10.721Z,-1.82
2018-02-07T02:50:10.725Z,-1.82
2018-02-07T02:51:10.734Z,-1.79
2018-02-07T02:52:10.748Z,-1.87
2018-02-07T02:53:10.751Z,-1.84
2018-02-07T02:54:10.765Z,-1.82
2018-02-07T02:55:10.773Z,-1.82
2018-02-07T02:56:10.780Z,-1.82
2018-02-07T02:57:10.791Z,-1.84
2018-02-07T02:58:10.803Z,-1.86
2018-02-07T02:59:10.811Z,-1.76
2018-02-07T03:00:10.820Z,-1.82
2018-02-07T03:01:10.822Z,-1.84
2018-02-07T03:02:10.830Z,-1.81
2018-02-07T03:03:10.844Z,-1.82
2018-02-07T03:04:10.848Z,-1.72
2018-02-07T03:05:10.860Z,-1.86
2018-02-07T03:06:10.857Z,-1.74
2018-02-07T03:07:10.866Z,-1.75
2018-02-07T03:08:10.872Z,-1.84
2018-02-07T03:09:10.877Z,-1.69
2018-02-07T03:10:10.893Z,-1.71
2018-02-07T03:11:10.898Z,-1.82
2018-02-07T03:12:10.906Z,-1.66
2018-02-07T03:13:10.923Z,-1.78
2018-02-07T03:14:10.928Z,-1.66
2018-02-07T03:15:10.932Z,-1.66
2018-02-07T03:16:10.945Z,-1.78
2018-02-07T03:17:10.951Z,-1.72
2018-02-07T03:18:10.960Z,-1.69
2018-02-07T03:19:10.974Z,-1.68
2018-02-07T03:20:10.993Z,-1.81
2018-02-07T03:21:10.988Z,-1.69
2018-02-07T03:22:11.000Z,-1.74
2018-02-07T03:23:11.002Z,-1.63
2018-02-07T03:24:11.021Z,-1.68
2018-02-07T03:25:11.023Z,-1.64
2018-02-07T03:26:11.022Z,-1.68
2018-02-07T03:27:11.031Z,-1.61
2018-02-07T03:28:11.038Z,-1.61
2018-02-07T03:29:11.046Z,-1.63
2018-02-07T03:30:11.057Z,-1.61
2018-02-07T03:31:11.061Z,-1.63
2018-02-07T03:32:11.078Z,-1.61
2018-02-07T03:33:11.077Z,-1.63
2018-02-07T03:34:11.086Z,-1.69
2018-02-07T03:35:11.104Z,-1.68
2018-02-07T03:36:11.111Z,-1.64
2018-02-07T03:37:11.119Z,-1.61
2018-02-07T03:38:11.129Z,-1.61
2018-02-07T03:39:11.134Z,-1.64
2018-02-07T03:40:11.145Z,-1.63
2018-02-07T03:41:11.152Z,-1.63
2018-02-07T03:42:11.161Z,-1.66
2018-02-07T03:43:11.177Z,-1.58
2018-02-07T03:44:11.168Z,-1.60
2018-02-07T03:45:11.185Z,-1.66
2018-02-07T03:46:11.191Z,-1.61
2018-02-07T03:47:11.225Z,-1.57
2018-02-07T03:48:11.201Z,-1.61
2018-02-07T03:49:11.214Z,-1.60
2018-02-07T03:50:11.222Z,-1.63
2018-02-07T03:51:11.228Z,-1.60
2018-02-07T03:52:11.245Z,-1.60
2018-02-07T03:53:11.243Z,-1.68
2018-02-07T03:54:11.257Z,-1.61
2018-02-07T03:55:11.269Z,-1.63
2018-02-07T03:56:11.274Z,-1.64
2018-02-07T03:57:11.294Z,-1.68
2018-02-07T03:58:11.295Z,-1.68
2018-02-07T03:59:11.301Z,-1.71
2018-02-07T04:00:11.309Z,-1.71
2018-02-07T04:01:11.315Z,-1.61
2018-02-07T04:02:11.322Z,-1.66
2018-02-07T04:03:11.341Z,-1.69
2018-02-07T04:04:11.330Z,-1.66
2018-02-07T04:05:11.343Z,-1.69
2018-02-07T04:06:11.356Z,-1.76
2018-02-07T04:07:11.356Z,-1.69
2018-02-07T04:08:11.371Z,-1.68
2018-02-07T04:09:11.379Z,-1.68
2018-02-07T04:10:11.384Z,-1.69
2018-02-07T04:11:11.400Z,-1.81
2018-02-07T04:12:11.400Z,-1.68
2018-02-07T04:13:11.416Z,-1.81
2018-02-07T04:14:11.422Z,-1.66
2018-02-07T04:15:11.438Z,-1.69
2018-02-07T04:16:11.443Z,-1.78
2018-02-07T04:17:11.448Z,-1.69
2018-02-07T04:18:11.457Z,-1.78
2018-02-07T04:19:11.481Z,-1.74
2018-02-07T04:20:11.477Z,-1.66
2018-02-07T04:21:11.486Z,-1.79
2018-02-07T04:22:11.488Z,-1.74
2018-02-07T04:23:11.488Z,-1.76
2018-02-07T04:24:11.499Z,-1.82
2018-02-07T04:25:11.510Z,-1.71
2018-02-07T04:26:11.516Z,-1.69
2018-02-07T04:27:11.531Z,-1.66
2018-02-07T04:28:11.532Z,-1.71
2018-02-07T04:29:11.546Z,-1.75
2018-02-07T04:30:11.558Z,-1.74
2018-02-07T04:31:11.560Z,-1.75
2018-02-07T04:32:11.573Z,-1.75
2018-02-07T04:33:11.581Z,-1.68
2018-02-07T04:34:11.587Z,-1.79
2018-02-07T04:35:11.595Z,-1.71
2018-02-07T04:36:11.603Z,-1.71
2018-02-07T04:37:11.620Z,-1.66
2018-02-07T04:38:11.626Z,-1.76
2018-02-07T04:39:11.628Z,-1.69
2018-02-07T04:40:11.646Z,-1.81
2018-02-07T04:41:11.638Z,-1.68
2018-02-07T04:42:11.649Z,-1.74
2018-02-07T04:43:11.656Z,-1.81
2018-02-07T04:44:11.659Z,-1.84
2018-02-07T04:45:11.673Z,-1.71
2018-02-07T04:46:11.682Z,-1.76
2018-02-07T04:47:11.686Z,-1.76
2018-02-07T04:48:11.702Z,-1.71
2018-02-07T04:49:11.706Z,-1.69
2018-02-07T04:50:11.722Z,-1.66
2018-02-07T04:51:11.730Z,-1.74
2018-02-07T04:52:11.730Z,-1.74
2018-02-07T04:53:11.752Z,-1.84
2018-02-07T04:54:11.756Z,-1.66
2018-02-07T04:55:11.757Z,-1.82
2018-02-07T04:56:11.776Z,-1.71
2018-02-07T04:57:11.776Z,-1.71
2018-02-07T04:58:11.788Z,-1.71
2018-02-07T04:59:11.804Z,-1.76
2018-02-07T05:00:11.791Z,-1.76
2018-02-07T05:01:11.809Z,-1.69
2018-02-07T05:02:11.811Z,-1.72
2018-02-07T05:03:11.822Z,-1.78
2018-02-07T05:04:11.843Z,-1.82
2018-02-07T05:05:11.837Z,-1.89
2018-02-07T05:06:11.845Z,-1.79
2018-02-07T05:07:11.858Z,-1.81
2018-02-07T05:08:11.867Z,-1.81
2018-02-07T05:09:11.876Z,-1.81
2018-02-07T05:10:11.887Z,-1.82
2018-02-07T05:11:11.889Z,-1.79
2018-02-07T05:12:11.904Z,-1.84
2018-02-07T05:13:11.904Z,-1.87
2018-02-07T05:14:11.926Z,-1.84
2018-02-07T05:15:11.932Z,-1.79
2018-02-07T05:16:11.936Z,-1.86
2018-02-07T05:17:11.936Z,-1.82
2018-02-07T05:18:11.943Z,-1.79
2018-02-07T05:19:11.950Z,-1.79
2018-02-07T05:20:11.964Z,-1.81
2018-02-07T05:21:11.964Z,-1.82
2018-02-07T05:22:11.973Z,-1.79
2018-02-07T05:23:11.984Z,-1.79
2018-02-07T05:24:11.991Z,-1.79
2018-02-07T05:25:12.003Z,-1.87
2018-02-07T05:26:12.013Z,-1.76
2018-02-07T05:27:12.018Z,-1.79
2018-02-07T05:28:12.032Z,-1.82
2018-02-07T05:29:12.037Z,-1.76
2018-02-07T05:30:12.046Z,-1.81
2018-02-07T05:31:12.059Z,-1.86
2018-02-07T05:32:12.059Z,-1.79
2018-02-07T05:33:12.074Z,-1.89
2018-02-07T05:34:12.070Z,-1.89
2018-02-07T05:35:12.075Z,-1.86
2018-02-07T05:36:12.091Z,-1.82
2018-02-07T05:37:12.099Z,-1.89
2018-02-07T05:38:12.105Z,-1.82
2018-02-07T05:39:12.117Z,-1.81
2018-02-07T05:40:12.123Z,-1.78
2018-02-07T05:41:12.140Z,-1.81
2018-02-07T05:42:12.143Z,-1.79
2018-02-07T05:43:12.153Z,-1.84
2018-02-07T05:44:12.159Z,-1.78
2018-02-07T05:45:12.165Z,-1.84
2018-02-07T05:46:12.174Z,-1.81
2018-02-07T05:47:12.175Z,-1.87
2018-02-07T05:48:12.182Z,-1.82
2018-02-07T05:49:12.198Z,-1.86
2018-02-07T05:50:12.203Z,-1.86
2018-02-07T05:51:12.207Z,-1.84
2018-02-07T05:52:12.218Z,-1.82
2018-02-07T05:53:12.224Z,-1.72
2018-02-07T05:54:12.232Z,-1.74
2018-02-07T05:55:12.257Z,-1.75
2018-02-07T05:56:12.254Z,-1.86
2018-02-07T05:57:12.262Z,-1.79
2018-02-07T05:58:12.274Z,-1.86
2018-02-07T05:59:12.297Z,-1.75
2018-02-07T06:00:12.288Z,-1.75
2018-02-07T06:01:12.305Z,-1.76
2018-02-07T06:02:12.311Z,-1.81
2018-02-07T06:03:12.314Z,-1.78
2018-02-07T06:04:12.314Z,-1.81
2018-02-07T06:05:12.319Z,-1.75
2018-02-07T06:06:12.370Z,-1.86
2018-02-07T06:07:12.345Z,-1.71
2018-02-07T06:08:12.346Z,-1.82
2018-02-07T06:09:12.363Z,-1.76
2018-02-07T06:10:12.367Z,-1.63
2018-02-07T06:11:12.373Z,-1.66
2018-02-07T06:12:12.387Z,-1.68
2018-02-07T06:13:12.391Z,-1.68
2018-02-07T06:14:12.401Z,-1.63
2018-02-07T06:15:12.412Z,-1.64
2018-02-07T06:16:12.415Z,-1.63
2018-02-07T06:17:12.432Z,-1.63
2018-02-07T06:18:12.444Z,-1.63
2018-02-07T06:19:12.446Z,-1.64
2018-02-07T06:20:12.459Z,-1.68
2018-02-07T06:21:12.465Z,-1.72
2018-02-07T06:22:12.473Z,-1.64
2018-02-07T06:23:12.484Z,-1.63
2018-02-07T06:24:12.475Z,-1.68
2018-02-07T06:25:12.491Z,-1.72
2018-02-07T06:26:12.496Z,-1.69
2018-02-07T06:27:12.504Z,-1.79
2018-02-07T06:28:12.513Z,-1.68
2018-02-07T06:29:12.523Z,-1.64
2018-02-07T06:30:12.530Z,-1.63
2018-02-07T06:31:12.540Z,-1.76
2018-02-07T06:32:12.548Z,-1.61
2018-02-07T06:33:12.561Z,-1.64
2018-02-07T06:34:12.568Z,-1.71
2018-02-07T06:35:12.574Z,-1.69
2018-02-07T06:36:12.588Z,-1.71
2018-02-07T06:37:12.589Z,-1.64
2018-02-07T06:38:12.603Z,-1.60
2018-02-07T06:39:12.617Z,-1.68
2018-02-07T06:40:12.619Z,-1.71
2018-02-07T06:41:12.632Z,-1.66
2018-02-07T06:42:12.629Z,-1.64
2018-02-07T06:43:12.634Z,-1.63
2018-02-07T06:44:12.661Z,-1.58
2018-02-07T06:45:12.651Z,-1.63
2018-02-07T06:46:12.659Z,-1.64
2018-02-07T06:47:12.679Z,-1.66
2018-02-07T06:48:12.676Z,-1.69
2018-02-07T06:49:12.689Z,-1.63
2018-02-07T06:50:12.708Z,-1.68
2018-02-07T06:51:12.702Z,-1.60
2018-02-07T06:52:12.720Z,-1.63
2018-02-07T06:53:12.722Z,-1.61
2018-02-07T06:54:12.743Z,-1.63
2018-02-07T06:55:12.745Z,-1.68
2018-02-07T06:56:12.746Z,-1.63
2018-02-07T06:57:12.759Z,-1.69
2018-02-07T06:58:12.767Z,-1.63
2018-02-07T06:59:12.772Z,-1.64
2018-02-07T07:00:12.787Z,-1.68
2018-02-07T07:01:12.781Z,-1.64
2018-02-07T07:02:12.802Z,-1.64
2018-02-07T07:03:12.801Z,-1.63
2018-02-07T07:04:12.809Z,-1.68
2018-02-07T07:05:12.817Z,-1.64
2018-02-07T07:06:12.834Z,-1.66
2018-02-07T07:07:12.830Z,-1.71
2018-02-07T07:08:12.847Z,-1.71
2018-02-07T07:09:12.852Z,-1.63
2018-02-07T07:10:12.860Z,-1.64
2018-02-07T07:11:12.872Z,-1.60
2018-02-07T07:12:12.876Z,-1.61
2018-02-07T07:13:12.894Z,-1.64
2018-02-07T07:14:12.901Z,-1.58
2018-02-07T07:15:12.903Z,-1.61
2018-02-07T07:16:12.921Z,-1.63
2018-02-07T07:17:12.925Z,-1.64
2018-02-07T07:18:12.930Z,-1.61
2018-02-07T07:19:12.943Z,-1.61
2018-02-07T07:20:12.949Z,-1.63
2018-02-07T07:21:12.950Z,-1.63
2018-02-07T07:22:12.958Z,-1.61
2018-02-07T07:23:12.963Z,-1.64
2018-02-07T07:24:12.975Z,-1.68
2018-02-07T07:25:12.979Z,-1.64
2018-02-07T07:26:12.988Z,-1.64
2018-02-07T07:27:13.000Z,-1.63
2018-02-07T07:28:13.020Z,-1.64
2018-02-07T07:29:13.022Z,-1.64
2018-02-07T07:30:13.032Z,-1.63
2018-02-07T07:31:13.035Z,-1.63
2018-02-07T07:32:13.052Z,-1.58
2018-02-07T07:33:13.056Z,-1.66
2018-02-07T07:34:13.074Z,-1.57
2018-02-07T07:35:13.079Z,-1.51
2018-02-07T07:36:13.076Z,-1.43
2018-02-07T07:37:13.089Z,-1.48
2018-02-07T07:38:13.113Z,-1.45
2018-02-07T07:39:13.103Z,-1.39
2018-02-07T07:40:13.120Z,-1.45
2018-02-07T07:41:13.127Z,-1.39
2018-02-07T07:42:13.124Z,-1.43
2018-02-07T07:43:13.133Z,-1.30
2018-02-07T07:44:13.135Z,-1.45
2018-02-07T07:45:13.151Z,-1.38
2018-02-07T07:46:13.157Z,-1.27
2018-02-07T07:47:13.163Z,-1.22
2018-02-07T07:48:13.176Z,-1.33
2018-02-07T07:49:13.183Z,-1.21
2018-02-07T07:50:13.195Z,-1.24
2018-02-07T07:51:13.201Z,-1.24
2018-02-07T07:52:13.209Z,-1.29
2018-02-07T07:53:13.225Z,-1.30
2018-02-07T07:54:13.231Z,-1.12
2018-02-07T07:55:13.235Z,-1.22
2018-02-07T07:56:13.258Z,-1.19
2018-02-07T07:57:13.254Z,-1.19
2018-02-07T07:58:13.263Z,-1.17
2018-02-07T07:59:13.273Z,-1.30
2018-02-07T08:00:13.282Z,-1.09
2018-02-07T08:01:13.294Z,-1.18
2018-02-07T08:02:13.304Z,-1.03
2018-02-07T08:03:13.309Z,-1.11
2018-02-07T08:04:13.350Z,-1.11
2018-02-07T08:05:13.330Z,-1.17
2018-02-07T08:06:13.336Z,-1.07
2018-02-07T08:07:13.346Z,-1.04
2018-02-07T08:08:13.357Z,-0.96
2018-02-07T08:09:13.362Z,-0.99
2018-02-07T08:10:13.375Z,-0.96
2018-02-07T08:11:13.379Z,-0.99
2018-02-07T08:12:13.395Z,-0.99
2018-02-07T08:13:13.395Z,-0.89
2018-02-07T08:14:13.404Z,-0.84
2018-02-07T08:15:13.418Z,-0.89
2018-02-07T08:16:13.424Z,-0.89
2018-02-07T08:17:13.439Z,-0.93
2018-02-07T08:18:13.442Z,-0.89
2018-02-07T08:19:13.446Z,-0.85
2018-02-07T08:20:13.459Z,-0.89
2018-02-07T08:21:13.470Z,-0.81
2018-02-07T08:22:13.473Z,-0.84
2018-02-07T08:23:13.485Z,-0.82
2018-02-07T08:24:13.497Z,-0.87
2018-02-07T08:25:13.506Z,-0.84
2018-02-07T08:26:13.519Z,-0.84
2018-02-07T08:27:13.520Z,-0.82
2018-02-07T08:28:13.534Z,-0.75
2018-02-07T08:29:13.541Z,-0.74
2018-02-07T08:30:13.544Z,-0.67
2018-02-07T08:31:13.563Z,-0.66
2018-02-07T08:32:13.565Z,-0.67
2018-02-07T08:33:13.579Z,-0.62
2018-02-07T08:34:13.588Z,-0.57
2018-02-07T08:35:13.604Z,-0.53
2018-02-07T08:36:13.628Z,-0.53
2018-02-07T08:37:13.620Z,-0.62
2018-02-07T08:38:13.629Z,-0.57
2018-02-07T08:39:13.646Z,-0.54
2018-02-07T08:40:13.657Z,-0.53
2018-02-07T08:41:13.659Z,-0.56
2018-02-07T08:42:13.668Z,-0.49
2018-02-07T08:43:13.672Z,-0.48
2018-02-07T08:44:13.689Z,-0.51
2018-02-07T08:45:13.697Z,-0.48
2018-02-07T08:46:13.702Z,-0.51
2018-02-07T08:47:13.717Z,-0.56
2018-02-07T08:48:13.717Z,-0.46
2018-02-07T08:49:13.730Z,-0.39
2018-02-07T08:50:13.752Z,-0.39
2018-02-07T08:51:13.748Z,-0.44
2018-02-07T08:52:13.756Z,-0.38
2018-02-07T08:53:13.762Z,-0.41
2018-02-07T08:54:13.770Z,-0.46
2018-02-07T08:55:13.804Z,-0.42
2018-02-07T08:56:13.803Z,-0.44
2018-02-07T08:57:13.815Z,-0.46
2018-02-07T08:58:13.826Z,-0.39
2018-02-07T08:59:13.841Z,-0.39
2018-02-07T09:00:13.841Z,-0.46
2018-02-07T09:01:13.849Z,-0.33
2018-02-07T09:02:13.854Z,-0.41
2018-02-07T09:03:13.870Z,-0.27
2018-02-07T09:04:13.873Z,-0.38
2018-02-07T09:05:13.887Z,-0.38
2018-02-07T09:06:13.896Z,-0.39
2018-02-07T09:07:13.900Z,-0.36
2018-02-07T09:08:13.912Z,-0.39
2018-02-07T09:09:13.921Z,-0.38
2018-02-07T09:10:13.938Z,-0.42
2018-02-07T09:11:13.950Z,-0.44
2018-02-07T09:12:13.956Z,-0.46
2018-02-07T09:13:13.971Z,-0.39
2018-02-07T09:14:13.980Z,-0.30
2018-02-07T09:15:13.984Z,-0.39
2018-02-07T09:16:13.994Z,-0.42
2018-02-07T09:17:14.000Z,-0.41
2018-02-07T09:18:14.008Z,-0.42
2018-02-07T09:19:14.022Z,-0.41
2018-02-07T09:20:14.042Z,-0.51
2018-02-07T09:21:14.042Z,-0.54
2018-02-07T09:22:14.054Z,-0.56
2018-02-07T09:23:14.059Z,-0.48
2018-02-07T09:24:14.068Z,-0.51
2018-02-07T09:25:14.077Z,-0.54
2018-02-07T09:26:14.084Z,-0.48
2018-02-07T09:27:14.108Z,-0.56
2018-02-07T09:28:14.111Z,-0.57
2018-02-07T09:29:14.124Z,-0.59
2018-02-07T09:30:14.137Z,-0.45
2018-02-07T09:31:14.141Z,-0.42
2018-02-07T09:32:14.154Z,-0.41
2018-02-07T09:33:14.159Z,-0.46
2018-02-07T09:34:14.168Z,-0.56
2018-02-07T09:35:14.178Z,-0.41
2018-02-07T09:36:14.181Z,-0.42
2018-02-07T09:37:14.194Z,-0.44
2018-02-07T09:38:14.203Z,-0.46
2018-02-07T09:39:14.208Z,-0.45
2018-02-07T09:40:14.257Z,-0.45
2018-02-07T09:41:14.225Z,-0.56
2018-02-07T09:42:14.234Z,-0.46
2018-02-07T09:43:14.248Z,-0.56
2018-02-07T09:44:14.266Z,-0.56
2018-02-07T09:45:14.269Z,-0.53
2018-02-07T09:46:14.277Z,-0.54
2018-02-07T09:47:14.295Z,-0.51
2018-02-07T09:48:14.308Z,-0.53
2018-02-07T09:49:14.309Z,-0.53
2018-02-07T09:50:14.321Z,-0.59
2018-02-07T09:51:14.332Z,-0.57
2018-02-07T09:52:14.341Z,-0.56
2018-02-07T09:53:14.351Z,-0.60
2018-02-07T09:54:14.362Z,-0.56
2018-02-07T09:55:14.365Z,-0.59
2018-02-07T09:56:14.378Z,-0.54
2018-02-07T09:57:14.385Z,-0.57
2018-02-07T09:58:14.392Z,-0.57
2018-02-07T09:59:14.404Z,-0.60
2018-02-07T10:00:14.407Z,-0.56
2018-02-07T10:01:14.419Z,-0.62
2018-02-07T10:02:14.428Z,-0.56
2018-02-07T10:03:14.435Z,-0.56
2018-02-07T10:04:14.448Z,-0.66
2018-02-07T10:05:14.453Z,-0.57
2018-02-07T10:06:14.466Z,-0.62
2018-02-07T10:07:14.480Z,-0.59
2018-02-07T10:08:14.487Z,-0.54
2018-02-07T10:09:14.494Z,-0.63
2018-02-07T10:10:14.504Z,-0.59
2018-02-07T10:11:14.504Z,-0.59
2018-02-07T10:12:14.516Z,-0.57
2018-02-07T10:13:14.528Z,-0.56
2018-02-07T10:14:14.536Z,-0.54
2018-02-07T10:15:14.547Z,-0.53
2018-02-07T10:16:14.561Z,-0.51
2018-02-07T10:17:14.572Z,-0.56
2018-02-07T10:18:14.571Z,-0.48
2018-02-07T10:19:14.605Z,-0.49
2018-02-07T10:20:14.597Z,-0.42
2018-02-07T10:21:14.610Z,-0.45
2018-02-07T10:22:14.619Z,-0.36
2018-02-07T10:23:14.630Z,-0.39
2018-02-07T10:24:14.639Z,-0.35
2018-02-07T10:25:14.645Z,-0.46
2018-02-07T10:26:14.704Z,-0.42
2018-02-07T10:27:14.665Z,-0.30
2018-02-07T10:28:14.675Z,-0.30
2018-02-07T10:29:14.700Z,-0.26
2018-02-07T10:30:14.693Z,-0.24
2018-02-07T10:31:14.700Z,-0.26
2018-02-07T10:32:14.708Z,-0.18
2018-02-07T10:33:14.732Z,-0.15
2018-02-07T10:34:14.722Z,-0.21
2018-02-07T10:35:14.735Z,-0.10
2018-02-07T10:36:14.745Z,-0.05
2018-02-07T10:37:14.754Z,-0.09
2018-02-07T10:38:14.763Z,-0.09
2018-02-07T10:39:14.769Z,0.02
2018-02-07T10:40:14.801Z,0.01
2018-02-07T10:41:14.797Z,0.08
2018-02-07T10:42:14.810Z,0.01
2018-02-07T10:43:14.818Z,0.13
2018-02-07T10:44:14.825Z,0.19
2018-02-07T10:45:14.836Z,0.20
2018-02-07T10:46:14.845Z,0.18
2018-02-07T10:47:14.854Z,0.20
2018-02-07T10:48:14.865Z,0.24
2018-02-07T10:49:14.870Z,0.23
2018-02-07T10:50:14.880Z,0.29
2018-02-07T10:51:14.892Z,0.31
2018-02-07T10:52:14.913Z,0.30
2018-02-07T10:53:14.923Z,0.39
2018-02-07T10:54:14.928Z,0.44
2018-02-07T10:55:14.934Z,0.39
2018-02-07T10:56:14.948Z,0.48
2018-02-07T10:57:14.957Z,0.42
2018-02-07T10:58:14.965Z,0.52
2018-02-07T10:59:14.975Z,0.61
2018-02-07T11:00:14.981Z,0.59
2018-02-07T11:01:15.010Z,0.63
2018-02-07T11:02:15.004Z,0.67
2018-02-07T11:03:15.011Z,0.74
2018-02-07T11:04:15.031Z,0.70
2018-02-07T11:05:15.035Z,0.76
2018-02-07T11:06:15.050Z,0.71
2018-02-07T11:07:15.058Z,0.81
2018-02-07T11:08:15.065Z,0.85
2018-02-07T11:09:15.076Z,0.94
2018-02-07T11:10:15.087Z,0.85
2018-02-07T11:11:15.094Z,0.96
2018-02-07T11:12:15.114Z,1.02
2018-02-07T11:13:15.119Z,0.96
2018-02-07T11:14:15.127Z,1.06
2018-02-07T11:15:15.140Z,1.06
2018-02-07T11:16:15.186Z,1.07
2018-02-07T11:17:15.163Z,1.10
2018-02-07T11:18:15.170Z,1.07
2018-02-07T11:19:15.191Z,1.16
2018-02-07T11:20:15.203Z,1.09
2018-02-07T11:21:15.202Z,1.16
2018-02-07T11:22:15.211Z,1.07
2018-02-07T11:23:15.227Z,1.25
2018-02-07T11:24:15.233Z,1.20
2018-02-07T11:25:15.246Z,1.20
2018-02-07T11:26:15.273Z,1.22
2018-02-07T11:27:15.273Z,1.21
2018-02-07T11:28:15.282Z,1.28
2018-02-07T11:29:15.287Z,1.21
2018-02-07T11:30:15.296Z,1.30
2018-02-07T11:31:15.311Z,1.21
2018-02-07T11:32:15.318Z,1.28
2018-02-07T11:33:15.342Z,1.21
2018-02-07T11:34:15.348Z,1.24
2018-02-07T11:35:15.351Z,1.28
2018-02-07T11:36:15.380Z,1.24
2018-02-07T11:37:15.372Z,1.34
2018-02-07T11:38:15.382Z,1.25
2018-02-07T11:39:15.398Z,1.30
2018-02-07T11:40:15.408Z,1.25
2018-02-07T11:41:15.421Z,1.34
2018-02-07T11:42:15.431Z,1.39
2018-02-07T11:43:15.439Z,1.34
2018-02-07T11:44:15.453Z,1.43
2018-02-07T11:45:15.468Z,1.43
2018-02-07T11:46:15.465Z,1.48
2018-02-07T11:47:15.489Z,1.32
2018-02-07T11:48:15.496Z,1.42
2018-02-07T11:49:15.509Z,1.49
2018-02-07T11:50:15.517Z,1.53
2018-02-07T11:51:15.523Z,1.49
2018-02-07T11:52:15.533Z,1.52
2018-02-07T11:53:15.554Z,1.50
2018-02-07T11:54:15.563Z,1.56
2018-02-07T11:55:15.571Z,1.53
2018-02-07T11:56:15.578Z,1.57
2018-02-07T11:57:15.591Z,1.58
2018-02-07T11:58:15.600Z,1.66
2018-02-07T11:59:15.608Z,1.66
2018-02-07T12:00:15.628Z,1.74
2018-02-07T12:01:15.634Z,1.74
2018-02-07T12:02:15.646Z,1.79
2018-02-07T12:03:15.655Z,1.75
2018-02-07T12:04:15.665Z,1.82
2018-02-07T12:05:15.686Z,1.81
2018-02-07T12:06:15.698Z,1.89
2018-02-07T12:07:15.700Z,1.95
2018-02-07T12:08:15.718Z,1.98
2018-02-07T12:09:15.719Z,1.97
2018-02-07T12:10:15.729Z,2.01
2018-02-07T12:11:15.754Z,2.00
2018-02-07T12:12:15.755Z,1.95
2018-02-07T12:13:15.769Z,1.98
2018-02-07T12:14:15.778Z,2.00
2018-02-07T12:15:15.784Z,2.05
2018-02-07T12:16:15.803Z,2.07
2018-02-07T12:17:15.815Z,2.07
2018-02-07T12:18:15.828Z,2.07
2018-02-07T12:19:15.836Z,2.12
2018-02-07T12:20:15.846Z,2.08
2018-02-07T12:21:15.853Z,2.10
2018-02-07T12:22:15.875Z,2.14
2018-02-07T12:23:15.885Z,2.08
2018-02-07T12:24:15.887Z,2.08
2018-02-07T12:25:15.905Z,2.10
2018-02-07T12:26:15.925Z,2.10
2018-02-07T12:27:15.929Z,2.14
2018-02-07T12:28:15.946Z,2.16
2018-02-07T12:29:15.950Z,2.16
2018-02-07T12:30:15.961Z,2.15
2018-02-07T12:31:15.969Z,2.19
2018-02-07T12:32:15.993Z,2.25
2018-02-07T12:33:15.999Z,2.19
2018-02-07T12:34:16.008Z,2.19
2018-02-07T12:35:16.012Z,2.16
2018-02-07T12:36:16.030Z,2.19
2018-02-07T12:37:16.040Z,2.26
2018-02-07T12:38:16.059Z,2.25
2018-02-07T12:39:16.062Z,2.21
2018-02-07T12:40:16.070Z,2.26
2018-02-07T12:41:16.095Z,2.26
2018-02-07T12:42:16.104Z,2.23
2018-02-07T12:43:16.109Z,2.25
2018-02-07T12:44:16.124Z,2.23
2018-02-07T12:45:16.124Z,2.25
2018-02-07T12:46:16.145Z,2.19
2018-02-07T12:47:16.159Z,2.25
2018-02-07T12:48:16.165Z,2.26
2018-02-07T12:49:16.183Z,2.21
2018-02-07T12:50:16.187Z,2.26
2018-02-07T12:51:16.207Z,2.28
2018-02-07T12:52:16.221Z,2.36
2018-02-07T12:53:16.223Z,2.30
2018-02-07T12:54:16.234Z,2.25
2018-02-07T12:55:16.248Z,2.32
2018-02-07T12:56:16.262Z,2.39
2018-02-07T12:57:16.278Z,2.37